EGPD METAR and TAF | Updated Today

EGPD METAR

Aberdeen Dyce Airport

Observation time: 14 min. ago

EGPD 010720Z AUTO 15004KT 9999 NCD 07/05 Q0992 NOSIG

Need help? Read our tutorial on how to read METARs or read the parsed version below.

Aberdeen Dyce Airport (EGPD) METAR

  • Weather conditions on Sat, 01 Oct 2022 07:20:00 +0000 (14 min. ago):
  • Present conditions: Dry
  • Clouds: Nil cloud detected
  • Visibility: Greater than 10 km
  • Wind: 150 degrees at 4 knots
  • Temperature: 7 celsius
  • Dew point: 5 celsius
  • Pressure: 992 millibars
  • Remarks: None


Useful to know...

EGPD TAF

Aberdeen Dyce Airport

TAF EGPD 010453Z 0106/0206 23008KT 9999 FEW030
Observation time: 2:41 hr. ago
Need help? Read our tutorial on how to read TAFs or read the parsed version below.

Parsed version of TAF for Aberdeen Dyce Airport (EGPD)

  • From 01 October at 06:00 UTC, to day 02 of the month at 06:00 UTC
  • Clouds: A few at 914 meters
  • Visibility: Greater than 10 km
  • Wind: 230 degrees at 8

Airports near EGPD

No airports found within 100nm radius.